Flugplatz Dierdorf-Wienau

Für EDRW sind keine METAR/TAF Berichte vorhanden.
Es werden die Flugwettermeldungen vom Flugplatz Siegerland in 34 km Entfernung angezeigt.

Bericht für EDGS

vom 17.09. um 14:20 UTC

Wind 13 kt aus 290°

Sichtweite 10 km oder mehr

aufgebrochene Bewölkung in 3300 ft

Temperatur 13.0°C

Taupunkt 6.0°C

Luftfeuchtigkeit 62%

Luftdruck 1020 hPa

EDGS 171420Z 29013KT 9999 BKN033 13/06 Q1020

Prognose für EDGS

vom 17.09. um 00:00 UTC

Zwischen 00:00 UTC und 00:00 UTC

Wind 13 kt aus 300°

Sichtweite 10 km oder mehr

aufgelockert bewölkt in 3500 ft


Zwischen 00:00 und 00:00 UTC übergehend zu

Wind 8 kt aus 320°

Sichtweite 10 km oder mehr

aufgelockert bewölkt in 3500 ft

TAF EDGS 171400Z 1715/1724 30013KT 9999 SCT035 BECMG 1717/1720 32008KT
Impressum